sensor_id;sensor_type;location;lat;lon;timestamp;P1;durP1;ratioP1;P2;durP2;ratioP2
41966;SDS011;27656;53.068;8.818;2024-03-07T00:00:04;15.23;;;10.73;;
41966;SDS011;27656;53.068;8.818;2024-03-07T00:02:33;16.87;;;11.43;;
41966;SDS011;27656;53.068;8.818;2024-03-07T00:05:00;16.37;;;11.13;;
41966;SDS011;27656;53.068;8.818;2024-03-07T00:07:27;18.50;;;11.23;;
41966;SDS011;27656;53.068;8.818;2024-03-07T00:09:53;16.80;;;11.27;;
41966;SDS011;27656;53.068;8.818;2024-03-07T00:12:22;17.10;;;11.53;;
41966;SDS011;27656;53.068;8.818;2024-03-07T00:14:49;17.43;;;10.93;;
41966;SDS011;27656;53.068;8.818;2024-03-07T00:17:15;20.23;;;11.77;;
41966;SDS011;27656;53.068;8.818;2024-03-07T00:19:42;18.00;;;11.17;;
41966;SDS011;27656;53.068;8.818;2024-03-07T00:22:08;19.47;;;11.67;;
41966;SDS011;27656;53.068;8.818;2024-03-07T00:24:34;17.23;;;10.80;;
41966;SDS011;27656;53.068;8.818;2024-03-07T00:27:01;18.97;;;11.97;;
41966;SDS011;27656;53.068;8.818;2024-03-07T00:29:28;18.43;;;11.67;;
41966;SDS011;27656;53.068;8.818;2024-03-07T00:31:54;17.63;;;11.57;;
41966;SDS011;27656;53.068;8.818;2024-03-07T00:34:21;16.60;;;11.07;;
41966;SDS011;27656;53.068;8.818;2024-03-07T00:36:51;16.90;;;12.03;;
41966;SDS011;27656;53.068;8.818;2024-03-07T00:39:18;20.57;;;12.43;;
41966;SDS011;27656;53.068;8.818;2024-03-07T00:41:46;19.60;;;12.40;;
41966;SDS011;27656;53.068;8.818;2024-03-07T00:44:12;21.27;;;12.27;;
41966;SDS011;27656;53.068;8.818;2024-03-07T00:46:39;21.83;;;13.27;;
41966;SDS011;27656;53.068;8.818;2024-03-07T00:49:06;22.17;;;12.60;;
41966;SDS011;27656;53.068;8.818;2024-03-07T00:51:32;19.63;;;13.23;;
41966;SDS011;27656;53.068;8.818;2024-03-07T00:53:59;20.97;;;13.60;;
41966;SDS011;27656;53.068;8.818;2024-03-07T00:56:25;20.10;;;12.47;;
41966;SDS011;27656;53.068;8.818;2024-03-07T00:58:52;20.50;;;12.73;;
41966;SDS011;27656;53.068;8.818;2024-03-07T01:01:18;22.10;;;13.73;;
41966;SDS011;27656;53.068;8.818;2024-03-07T01:03:47;18.87;;;12.60;;
41966;SDS011;27656;53.068;8.818;2024-03-07T01:06:14;22.60;;;13.73;;
41966;SDS011;27656;53.068;8.818;2024-03-07T01:08:40;20.67;;;13.50;;
41966;SDS011;27656;53.068;8.818;2024-03-07T01:11:07;23.27;;;14.00;;
41966;SDS011;27656;53.068;8.818;2024-03-07T01:13:39;21.77;;;13.37;;
41966;SDS011;27656;53.068;8.818;2024-03-07T01:16:05;25.77;;;15.70;;
41966;SDS011;27656;53.068;8.818;2024-03-07T01:18:32;26.73;;;14.77;;
41966;SDS011;27656;53.068;8.818;2024-03-07T01:21:02;25.10;;;14.87;;
41966;SDS011;27656;53.068;8.818;2024-03-07T01:23:30;26.10;;;15.70;;
41966;SDS011;27656;53.068;8.818;2024-03-07T01:25:58;25.17;;;15.30;;
41966;SDS011;27656;53.068;8.818;2024-03-07T01:28:25;25.60;;;15.30;;
41966;SDS011;27656;53.068;8.818;2024-03-07T01:30:56;25.67;;;16.33;;
41966;SDS011;27656;53.068;8.818;2024-03-07T01:33:24;28.17;;;16.60;;
41966;SDS011;27656;53.068;8.818;2024-03-07T01:35:51;28.67;;;16.90;;
41966;SDS011;27656;53.068;8.818;2024-03-07T01:38:18;28.77;;;17.57;;
41966;SDS011;27656;53.068;8.818;2024-03-07T01:40:45;31.93;;;17.93;;
41966;SDS011;27656;53.068;8.818;2024-03-07T01:43:12;26.13;;;17.00;;
41966;SDS011;27656;53.068;8.818;2024-03-07T01:45:38;26.27;;;17.13;;
41966;SDS011;27656;53.068;8.818;2024-03-07T01:48:05;27.37;;;16.70;;
41966;SDS011;27656;53.068;8.818;2024-03-07T01:50:34;30.97;;;18.33;;
41966;SDS011;27656;53.068;8.818;2024-03-07T01:53:05;32.87;;;18.70;;
41966;SDS011;27656;53.068;8.818;2024-03-07T01:55:35;30.10;;;18.43;;
41966;SDS011;27656;53.068;8.818;2024-03-07T01:58:04;31.17;;;19.30;;
41966;SDS011;27656;53.068;8.818;2024-03-07T02:00:32;32.83;;;19.77;;
41966;SDS011;27656;53.068;8.818;2024-03-07T02:02:58;34.77;;;20.23;;
41966;SDS011;27656;53.068;8.818;2024-03-07T02:05:25;33.13;;;19.63;;
41966;SDS011;27656;53.068;8.818;2024-03-07T02:07:52;34.10;;;19.97;;
41966;SDS011;27656;53.068;8.818;2024-03-07T02:10:18;33.03;;;20.53;;
41966;SDS011;27656;53.068;8.818;2024-03-07T02:12:45;36.50;;;20.30;;
41966;SDS011;27656;53.068;8.818;2024-03-07T02:15:14;35.30;;;21.23;;
41966;SDS011;27656;53.068;8.818;2024-03-07T02:17:55;35.40;;;21.63;;
41966;SDS011;27656;53.068;8.818;2024-03-07T02:20:22;37.23;;;21.33;;
41966;SDS011;27656;53.068;8.818;2024-03-07T02:22:48;39.80;;;23.10;;
41966;SDS011;27656;53.068;8.818;2024-03-07T02:25:16;42.23;;;22.73;;
41966;SDS011;27656;53.068;8.818;2024-03-07T02:27:43;44.57;;;25.97;;
41966;SDS011;27656;53.068;8.818;2024-03-07T02:30:11;48.67;;;24.77;;
41966;SDS011;27656;53.068;8.818;2024-03-07T02:32:38;53.40;;;28.53;;
41966;SDS011;27656;53.068;8.818;2024-03-07T02:35:05;51.83;;;28.97;;
41966;SDS011;27656;53.068;8.818;2024-03-07T02:37:33;58.27;;;29.33;;
41966;SDS011;27656;53.068;8.818;2024-03-07T02:39:59;57.40;;;30.77;;
41966;SDS011;27656;53.068;8.818;2024-03-07T02:42:26;60.23;;;30.57;;
41966;SDS011;27656;53.068;8.818;2024-03-07T02:44:52;69.10;;;31.87;;
41966;SDS011;27656;53.068;8.818;2024-03-07T02:47:19;63.30;;;31.37;;
41966;SDS011;27656;53.068;8.818;2024-03-07T02:49:45;65.77;;;31.40;;
41966;SDS011;27656;53.068;8.818;2024-03-07T02:52:12;76.13;;;37.10;;
41966;SDS011;27656;53.068;8.818;2024-03-07T02:54:38;84.57;;;35.33;;
41966;SDS011;27656;53.068;8.818;2024-03-07T02:57:05;101.30;;;38.00;;
41966;SDS011;27656;53.068;8.818;2024-03-07T02:59:31;95.03;;;33.00;;
41966;SDS011;27656;53.068;8.818;2024-03-07T03:01:58;76.73;;;34.03;;
41966;SDS011;27656;53.068;8.818;2024-03-07T03:04:24;109.83;;;32.50;;
41966;SDS011;27656;53.068;8.818;2024-03-07T03:06:51;88.00;;;33.07;;
41966;SDS011;27656;53.068;8.818;2024-03-07T03:09:17;92.90;;;33.13;;
41966;SDS011;27656;53.068;8.818;2024-03-07T03:11:44;171.13;;;39.37;;
41966;SDS011;27656;53.068;8.818;2024-03-07T03:14:12;177.03;;;39.00;;
41966;SDS011;27656;53.068;8.818;2024-03-07T03:16:42;203.77;;;43.03;;
41966;SDS011;27656;53.068;8.818;2024-03-07T03:19:14;145.50;;;38.20;;
41966;SDS011;27656;53.068;8.818;2024-03-07T03:21:41;257.60;;;46.20;;
41966;SDS011;27656;53.068;8.818;2024-03-07T03:24:09;297.83;;;49.93;;
41966;SDS011;27656;53.068;8.818;2024-03-07T03:26:35;566.30;;;69.47;;
41966;SDS011;27656;53.068;8.818;2024-03-07T03:29:02;134.07;;;39.20;;
41966;SDS011;27656;53.068;8.818;2024-03-07T03:31:28;133.50;;;36.20;;
41966;SDS011;27656;53.068;8.818;2024-03-07T03:33:55;113.00;;;35.00;;
41966;SDS011;27656;53.068;8.818;2024-03-07T03:36:22;182.30;;;42.33;;
41966;SDS011;27656;53.068;8.818;2024-03-07T03:38:48;125.97;;;39.30;;
41966;SDS011;27656;53.068;8.818;2024-03-07T03:41:17;141.17;;;38.57;;
41966;SDS011;27656;53.068;8.818;2024-03-07T03:43:44;103.70;;;32.47;;
41966;SDS011;27656;53.068;8.818;2024-03-07T03:46:11;100.83;;;32.23;;
41966;SDS011;27656;53.068;8.818;2024-03-07T03:48:40;121.40;;;35.10;;
41966;SDS011;27656;53.068;8.818;2024-03-07T03:51:07;90.20;;;31.20;;
41966;SDS011;27656;53.068;8.818;2024-03-07T03:53:35;383.30;;;48.87;;
41966;SDS011;27656;53.068;8.818;2024-03-07T03:56:03;247.77;;;40.03;;
41966;SDS011;27656;53.068;8.818;2024-03-07T03:58:32;99.40;;;33.53;;
41966;SDS011;27656;53.068;8.818;2024-03-07T04:01:00;146.63;;;35.53;;
41966;SDS011;27656;53.068;8.818;2024-03-07T04:03:26;157.87;;;37.33;;
41966;SDS011;27656;53.068;8.818;2024-03-07T04:05:53;164.60;;;35.40;;
41966;SDS011;27656;53.068;8.818;2024-03-07T04:08:21;295.97;;;43.67;;
41966;SDS011;27656;53.068;8.818;2024-03-07T04:10:48;347.27;;;46.80;;
41966;SDS011;27656;53.068;8.818;2024-03-07T04:13:15;132.43;;;35.37;;
41966;SDS011;27656;53.068;8.818;2024-03-07T04:15:41;113.47;;;32.87;;
41966;SDS011;27656;53.068;8.818;2024-03-07T04:18:10;116.63;;;33.40;;
41966;SDS011;27656;53.068;8.818;2024-03-07T04:20:37;339.03;;;46.23;;
41966;SDS011;27656;53.068;8.818;2024-03-07T04:23:05;381.77;;;53.40;;
41966;SDS011;27656;53.068;8.818;2024-03-07T04:25:34;106.87;;;32.87;;
41966;SDS011;27656;53.068;8.818;2024-03-07T04:28:01;78.80;;;30.43;;
41966;SDS011;27656;53.068;8.818;2024-03-07T04:30:27;287.30;;;40.53;;
41966;SDS011;27656;53.068;8.818;2024-03-07T04:32:54;105.60;;;31.60;;
41966;SDS011;27656;53.068;8.818;2024-03-07T04:35:20;109.90;;;32.50;;
41966;SDS011;27656;53.068;8.818;2024-03-07T04:37:48;85.17;;;31.43;;
41966;SDS011;27656;53.068;8.818;2024-03-07T04:40:14;97.30;;;31.50;;
41966;SDS011;27656;53.068;8.818;2024-03-07T04:42:45;87.47;;;31.90;;
41966;SDS011;27656;53.068;8.818;2024-03-07T04:45:15;80.90;;;31.00;;
41966;SDS011;27656;53.068;8.818;2024-03-07T04:47:42;85.20;;;32.40;;
41966;SDS011;27656;53.068;8.818;2024-03-07T04:50:09;90.60;;;32.83;;
41966;SDS011;27656;53.068;8.818;2024-03-07T04:52:40;93.13;;;33.23;;
41966;SDS011;27656;53.068;8.818;2024-03-07T04:55:06;89.73;;;31.77;;
41966;SDS011;27656;53.068;8.818;2024-03-07T04:57:37;90.37;;;33.87;;
41966;SDS011;27656;53.068;8.818;2024-03-07T05:00:06;143.73;;;38.20;;
41966;SDS011;27656;53.068;8.818;2024-03-07T05:02:34;113.70;;;34.10;;
41966;SDS011;27656;53.068;8.818;2024-03-07T05:05:00;98.77;;;35.03;;
41966;SDS011;27656;53.068;8.818;2024-03-07T05:07:27;92.63;;;34.33;;
41966;SDS011;27656;53.068;8.818;2024-03-07T05:09:53;88.43;;;34.27;;
41966;SDS011;27656;53.068;8.818;2024-03-07T05:12:21;97.20;;;36.13;;
41966;SDS011;27656;53.068;8.818;2024-03-07T05:14:47;82.27;;;32.40;;
41966;SDS011;27656;53.068;8.818;2024-03-07T05:17:14;96.43;;;34.60;;
41966;SDS011;27656;53.068;8.818;2024-03-07T05:19:40;80.30;;;31.83;;
41966;SDS011;27656;53.068;8.818;2024-03-07T05:22:07;87.23;;;34.90;;
41966;SDS011;27656;53.068;8.818;2024-03-07T05:24:34;88.77;;;35.23;;
41966;SDS011;27656;53.068;8.818;2024-03-07T05:27:01;90.03;;;34.73;;
41966;SDS011;27656;53.068;8.818;2024-03-07T05:29:28;99.33;;;35.93;;
41966;SDS011;27656;53.068;8.818;2024-03-07T05:31:54;90.20;;;34.67;;
41966;SDS011;27656;53.068;8.818;2024-03-07T05:34:21;101.67;;;36.87;;
41966;SDS011;27656;53.068;8.818;2024-03-07T05:36:49;92.67;;;35.97;;
41966;SDS011;27656;53.068;8.818;2024-03-07T05:39:16;100.93;;;36.10;;
41966;SDS011;27656;53.068;8.818;2024-03-07T05:41:44;96.97;;;38.17;;
41966;SDS011;27656;53.068;8.818;2024-03-07T05:44:12;103.70;;;37.23;;
41966;SDS011;27656;53.068;8.818;2024-03-07T05:46:39;100.23;;;39.33;;
41966;SDS011;27656;53.068;8.818;2024-03-07T05:49:15;99.43;;;37.03;;
41966;SDS011;27656;53.068;8.818;2024-03-07T05:51:46;91.73;;;34.23;;
41966;SDS011;27656;53.068;8.818;2024-03-07T05:54:13;95.20;;;37.10;;
41966;SDS011;27656;53.068;8.818;2024-03-07T05:56:40;97.63;;;37.77;;
41966;SDS011;27656;53.068;8.818;2024-03-07T05:59:07;101.60;;;37.00;;
41966;SDS011;27656;53.068;8.818;2024-03-07T06:01:38;99.67;;;37.77;;
41966;SDS011;27656;53.068;8.818;2024-03-07T06:04:05;95.57;;;36.87;;
41966;SDS011;27656;53.068;8.818;2024-03-07T06:06:33;97.57;;;36.20;;
41966;SDS011;27656;53.068;8.818;2024-03-07T06:09:02;100.23;;;35.87;;
41966;SDS011;27656;53.068;8.818;2024-03-07T06:11:37;93.07;;;34.90;;
41966;SDS011;27656;53.068;8.818;2024-03-07T06:14:06;89.73;;;35.87;;
41966;SDS011;27656;53.068;8.818;2024-03-07T06:16:33;88.63;;;35.57;;
41966;SDS011;27656;53.068;8.818;2024-03-07T06:19:05;83.57;;;34.60;;
41966;SDS011;27656;53.068;8.818;2024-03-07T06:21:37;82.00;;;33.17;;
41966;SDS011;27656;53.068;8.818;2024-03-07T06:24:08;72.87;;;32.53;;
41966;SDS011;27656;53.068;8.818;2024-03-07T06:26:37;69.10;;;30.83;;
41966;SDS011;27656;53.068;8.818;2024-03-07T06:29:07;70.73;;;32.30;;
41966;SDS011;27656;53.068;8.818;2024-03-07T06:31:34;74.43;;;30.83;;
41966;SDS011;27656;53.068;8.818;2024-03-07T06:34:01;67.53;;;30.07;;
41966;SDS011;27656;53.068;8.818;2024-03-07T06:36:27;69.73;;;31.53;;
41966;SDS011;27656;53.068;8.818;2024-03-07T06:38:54;66.83;;;29.37;;
41966;SDS011;27656;53.068;8.818;2024-03-07T06:41:21;64.60;;;30.00;;
41966;SDS011;27656;53.068;8.818;2024-03-07T06:43:48;63.67;;;28.80;;
41966;SDS011;27656;53.068;8.818;2024-03-07T06:46:16;61.40;;;28.63;;
41966;SDS011;27656;53.068;8.818;2024-03-07T06:48:43;60.37;;;30.07;;
41966;SDS011;27656;53.068;8.818;2024-03-07T06:51:10;66.63;;;30.03;;
41966;SDS011;27656;53.068;8.818;2024-03-07T06:53:37;62.33;;;27.87;;
41966;SDS011;27656;53.068;8.818;2024-03-07T06:56:03;58.50;;;27.80;;
41966;SDS011;27656;53.068;8.818;2024-03-07T06:58:30;56.10;;;30.27;;
41966;SDS011;27656;53.068;8.818;2024-03-07T07:00:59;60.37;;;26.40;;
41966;SDS011;27656;53.068;8.818;2024-03-07T07:03:27;64.83;;;29.13;;
41966;SDS011;27656;53.068;8.818;2024-03-07T07:05:56;61.77;;;28.00;;
41966;SDS011;27656;53.068;8.818;2024-03-07T07:08:22;54.67;;;27.00;;
41966;SDS011;27656;53.068;8.818;2024-03-07T07:10:49;54.67;;;29.60;;
41966;SDS011;27656;53.068;8.818;2024-03-07T07:13:16;61.90;;;27.97;;
41966;SDS011;27656;53.068;8.818;2024-03-07T07:15:43;56.93;;;27.90;;
41966;SDS011;27656;53.068;8.818;2024-03-07T07:18:09;57.30;;;28.37;;
41966;SDS011;27656;53.068;8.818;2024-03-07T07:20:37;55.77;;;26.73;;
41966;SDS011;27656;53.068;8.818;2024-03-07T07:23:04;59.47;;;28.17;;
41966;SDS011;27656;53.068;8.818;2024-03-07T07:25:31;59.07;;;28.43;;
41966;SDS011;27656;53.068;8.818;2024-03-07T07:27:57;57.77;;;29.97;;
41966;SDS011;27656;53.068;8.818;2024-03-07T07:30:24;62.17;;;29.97;;
41966;SDS011;27656;53.068;8.818;2024-03-07T07:32:51;56.57;;;28.77;;
41966;SDS011;27656;53.068;8.818;2024-03-07T07:35:18;58.47;;;29.37;;
41966;SDS011;27656;53.068;8.818;2024-03-07T07:37:45;63.87;;;30.83;;
41966;SDS011;27656;53.068;8.818;2024-03-07T07:40:18;61.00;;;30.30;;
41966;SDS011;27656;53.068;8.818;2024-03-07T07:42:45;67.63;;;30.07;;
41966;SDS011;27656;53.068;8.818;2024-03-07T07:45:13;59.20;;;28.47;;
41966;SDS011;27656;53.068;8.818;2024-03-07T07:47:41;61.07;;;29.60;;
41966;SDS011;27656;53.068;8.818;2024-03-07T07:50:13;62.50;;;29.30;;
41966;SDS011;27656;53.068;8.818;2024-03-07T07:52:44;62.73;;;28.43;;
41966;SDS011;27656;53.068;8.818;2024-03-07T07:55:12;65.87;;;28.00;;
41966;SDS011;27656;53.068;8.818;2024-03-07T07:57:46;60.33;;;28.37;;
41966;SDS011;27656;53.068;8.818;2024-03-07T08:00:17;55.50;;;26.77;;
41966;SDS011;27656;53.068;8.818;2024-03-07T08:02:53;55.87;;;27.00;;
41966;SDS011;27656;53.068;8.818;2024-03-07T08:05:24;51.53;;;25.73;;
41966;SDS011;27656;53.068;8.818;2024-03-07T08:07:57;63.27;;;27.83;;
41966;SDS011;27656;53.068;8.818;2024-03-07T08:10:25;58.53;;;27.77;;
41966;SDS011;27656;53.068;8.818;2024-03-07T08:12:59;54.27;;;26.53;;
41966;SDS011;27656;53.068;8.818;2024-03-07T08:15:27;53.43;;;26.63;;
41966;SDS011;27656;53.068;8.818;2024-03-07T08:17:55;46.90;;;24.80;;
41966;SDS011;27656;53.068;8.818;2024-03-07T08:20:23;51.20;;;22.80;;
41966;SDS011;27656;53.068;8.818;2024-03-07T08:22:52;44.37;;;20.93;;
41966;SDS011;27656;53.068;8.818;2024-03-07T08:25:21;40.97;;;21.50;;
41966;SDS011;27656;53.068;8.818;2024-03-07T08:27:52;43.10;;;21.17;;
41966;SDS011;27656;53.068;8.818;2024-03-07T08:30:20;42.17;;;19.50;;
41966;SDS011;27656;53.068;8.818;2024-03-07T08:32:48;39.03;;;19.33;;
41966;SDS011;27656;53.068;8.818;2024-03-07T08:35:18;36.50;;;18.90;;
41966;SDS011;27656;53.068;8.818;2024-03-07T08:37:45;37.10;;;17.77;;
41966;SDS011;27656;53.068;8.818;2024-03-07T08:40:20;35.17;;;18.83;;
41966;SDS011;27656;53.068;8.818;2024-03-07T08:43:00;34.90;;;18.33;;
41966;SDS011;27656;53.068;8.818;2024-03-07T08:45:29;35.97;;;17.70;;
41966;SDS011;27656;53.068;8.818;2024-03-07T08:48:00;34.37;;;18.97;;
41966;SDS011;27656;53.068;8.818;2024-03-07T08:50:26;37.13;;;18.63;;
41966;SDS011;27656;53.068;8.818;2024-03-07T08:52:54;43.87;;;19.77;;
41966;SDS011;27656;53.068;8.818;2024-03-07T08:55:24;38.73;;;18.03;;
41966;SDS011;27656;53.068;8.818;2024-03-07T08:57:53;39.63;;;20.20;;
41966;SDS011;27656;53.068;8.818;2024-03-07T09:00:20;37.73;;;18.43;;
41966;SDS011;27656;53.068;8.818;2024-03-07T09:02:57;38.70;;;19.57;;
41966;SDS011;27656;53.068;8.818;2024-03-07T09:05:27;39.33;;;19.57;;
41966;SDS011;27656;53.068;8.818;2024-03-07T09:07:55;36.87;;;17.97;;
41966;SDS011;27656;53.068;8.818;2024-03-07T09:10:21;39.20;;;18.37;;
41966;SDS011;27656;53.068;8.818;2024-03-07T09:12:50;37.40;;;17.60;;
41966;SDS011;27656;53.068;8.818;2024-03-07T09:15:18;36.53;;;18.37;;
41966;SDS011;27656;53.068;8.818;2024-03-07T09:17:48;41.00;;;20.67;;
41966;SDS011;27656;53.068;8.818;2024-03-07T09:20:14;39.33;;;18.80;;
41966;SDS011;27656;53.068;8.818;2024-03-07T09:22:42;31.50;;;17.27;;
41966;SDS011;27656;53.068;8.818;2024-03-07T09:25:08;36.40;;;17.47;;
41966;SDS011;27656;53.068;8.818;2024-03-07T09:27:36;38.43;;;17.67;;
41966;SDS011;27656;53.068;8.818;2024-03-07T09:30:04;39.20;;;19.17;;
41966;SDS011;27656;53.068;8.818;2024-03-07T09:32:31;38.47;;;17.83;;
41966;SDS011;27656;53.068;8.818;2024-03-07T09:35:00;33.23;;;17.80;;
41966;SDS011;27656;53.068;8.818;2024-03-07T09:37:27;36.83;;;17.57;;
41966;SDS011;27656;53.068;8.818;2024-03-07T09:39:54;40.83;;;17.70;;
41966;SDS011;27656;53.068;8.818;2024-03-07T09:42:20;38.13;;;18.00;;
41966;SDS011;27656;53.068;8.818;2024-03-07T09:44:50;30.93;;;16.47;;
41966;SDS011;27656;53.068;8.818;2024-03-07T09:47:18;38.27;;;18.43;;
41966;SDS011;27656;53.068;8.818;2024-03-07T09:49:46;38.13;;;19.80;;
41966;SDS011;27656;53.068;8.818;2024-03-07T10:03:29;44.23;;;19.73;;
41966;SDS011;27656;53.068;8.818;2024-03-07T10:05:57;35.30;;;18.63;;
41966;SDS011;27656;53.068;8.818;2024-03-07T10:08:23;37.27;;;19.87;;
41966;SDS011;27656;53.068;8.818;2024-03-07T10:10:53;40.47;;;20.60;;
41966;SDS011;27656;53.068;8.818;2024-03-07T10:13:22;32.93;;;18.57;;
41966;SDS011;27656;53.068;8.818;2024-03-07T10:15:49;39.53;;;18.83;;
41966;SDS011;27656;53.068;8.818;2024-03-07T10:18:15;36.13;;;19.27;;
41966;SDS011;27656;53.068;8.818;2024-03-07T10:20:45;32.60;;;18.00;;
41966;SDS011;27656;53.068;8.818;2024-03-07T10:23:12;31.77;;;17.70;;
41966;SDS011;27656;53.068;8.818;2024-03-07T10:25:46;37.40;;;18.90;;
41966;SDS011;27656;53.068;8.818;2024-03-07T10:28:13;41.43;;;20.47;;
41966;SDS011;27656;53.068;8.818;2024-03-07T10:30:42;35.80;;;18.70;;
41966;SDS011;27656;53.068;8.818;2024-03-07T10:33:11;37.43;;;18.80;;
41966;SDS011;27656;53.068;8.818;2024-03-07T10:35:39;30.13;;;18.23;;
41966;SDS011;27656;53.068;8.818;2024-03-07T10:38:05;28.80;;;15.30;;
41966;SDS011;27656;53.068;8.818;2024-03-07T10:40:34;30.63;;;16.30;;
41966;SDS011;27656;53.068;8.818;2024-03-07T10:43:10;25.40;;;14.27;;
41966;SDS011;27656;53.068;8.818;2024-03-07T10:45:41;30.03;;;15.37;;
41966;SDS011;27656;53.068;8.818;2024-03-07T10:48:16;27.40;;;14.87;;
41966;SDS011;27656;53.068;8.818;2024-03-07T10:59:27;23.20;;;11.97;;
41966;SDS011;27656;53.068;8.818;2024-03-07T11:04:34;20.90;;;11.27;;
41966;SDS011;27656;53.068;8.818;2024-03-07T11:07:01;23.97;;;12.17;;
41966;SDS011;27656;53.068;8.818;2024-03-07T11:09:27;20.17;;;11.63;;
41966;SDS011;27656;53.068;8.818;2024-03-07T11:11:59;19.77;;;11.97;;
41966;SDS011;27656;53.068;8.818;2024-03-07T11:14:30;20.07;;;11.20;;
41966;SDS011;27656;53.068;8.818;2024-03-07T11:16:58;23.60;;;12.90;;
41966;SDS011;27656;53.068;8.818;2024-03-07T11:19:28;20.10;;;12.13;;
41966;SDS011;27656;53.068;8.818;2024-03-07T11:21:57;22.73;;;12.70;;
41966;SDS011;27656;53.068;8.818;2024-03-07T11:24:29;23.03;;;12.20;;
41966;SDS011;27656;53.068;8.818;2024-03-07T11:26:57;21.23;;;12.47;;
41966;SDS011;27656;53.068;8.818;2024-03-07T11:32:03;25.13;;;13.17;;
41966;SDS011;27656;53.068;8.818;2024-03-07T11:34:30;20.47;;;12.37;;
41966;SDS011;27656;53.068;8.818;2024-03-07T11:36:56;25.67;;;12.33;;
41966;SDS011;27656;53.068;8.818;2024-03-07T11:39:41;20.17;;;11.37;;
41966;SDS011;27656;53.068;8.818;2024-03-07T11:44:48;22.00;;;12.03;;
41966;SDS011;27656;53.068;8.818;2024-03-07T11:47:15;21.30;;;11.80;;
41966;SDS011;27656;53.068;8.818;2024-03-07T11:49:44;20.53;;;11.77;;
41966;SDS011;27656;53.068;8.818;2024-03-07T11:52:15;22.10;;;11.53;;
41966;SDS011;27656;53.068;8.818;2024-03-07T11:54:43;21.97;;;12.73;;
41966;SDS011;27656;53.068;8.818;2024-03-07T11:57:16;19.83;;;11.43;;
41966;SDS011;27656;53.068;8.818;2024-03-07T11:59:45;24.47;;;11.33;;
41966;SDS011;27656;53.068;8.818;2024-03-07T12:02:18;20.90;;;11.53;;
41966;SDS011;27656;53.068;8.818;2024-03-07T12:04:49;23.83;;;11.47;;
41966;SDS011;27656;53.068;8.818;2024-03-07T12:07:16;19.83;;;11.33;;
41966;SDS011;27656;53.068;8.818;2024-03-07T12:09:49;18.63;;;10.80;;
41966;SDS011;27656;53.068;8.818;2024-03-07T12:12:22;18.27;;;10.60;;
41966;SDS011;27656;53.068;8.818;2024-03-07T12:14:50;19.73;;;11.20;;
41966;SDS011;27656;53.068;8.818;2024-03-07T12:17:20;19.63;;;11.23;;
41966;SDS011;27656;53.068;8.818;2024-03-07T12:19:48;19.33;;;11.43;;
41966;SDS011;27656;53.068;8.818;2024-03-07T12:22:21;18.67;;;11.93;;
41966;SDS011;27656;53.068;8.818;2024-03-07T12:24:59;20.30;;;11.53;;
41966;SDS011;27656;53.068;8.818;2024-03-07T12:27:29;19.10;;;11.63;;
41966;SDS011;27656;53.068;8.818;2024-03-07T12:29:56;22.23;;;11.77;;
41966;SDS011;27656;53.068;8.818;2024-03-07T12:32:23;23.47;;;11.50;;
41966;SDS011;27656;53.068;8.818;2024-03-07T12:34:52;19.27;;;12.13;;
41966;SDS011;27656;53.068;8.818;2024-03-07T12:37:19;21.83;;;13.17;;
41966;SDS011;27656;53.068;8.818;2024-03-07T12:39:53;24.80;;;12.43;;
41966;SDS011;27656;53.068;8.818;2024-03-07T12:42:27;22.30;;;11.70;;
41966;SDS011;27656;53.068;8.818;2024-03-07T12:44:55;24.00;;;11.90;;
41966;SDS011;27656;53.068;8.818;2024-03-07T12:47:22;22.73;;;12.50;;
41966;SDS011;27656;53.068;8.818;2024-03-07T12:49:50;21.83;;;12.27;;
41966;SDS011;27656;53.068;8.818;2024-03-07T12:52:17;20.97;;;12.10;;
41966;SDS011;27656;53.068;8.818;2024-03-07T12:54:43;20.63;;;11.83;;
41966;SDS011;27656;53.068;8.818;2024-03-07T12:57:10;20.90;;;11.83;;
41966;SDS011;27656;53.068;8.818;2024-03-07T12:59:37;20.93;;;12.20;;
41966;SDS011;27656;53.068;8.818;2024-03-07T13:02:08;22.70;;;11.90;;
41966;SDS011;27656;53.068;8.818;2024-03-07T13:04:36;22.13;;;13.40;;
41966;SDS011;27656;53.068;8.818;2024-03-07T13:07:09;22.97;;;13.03;;
41966;SDS011;27656;53.068;8.818;2024-03-07T13:09:36;23.93;;;12.60;;
41966;SDS011;27656;53.068;8.818;2024-03-07T13:12:04;26.97;;;13.43;;
41966;SDS011;27656;53.068;8.818;2024-03-07T13:14:36;23.87;;;14.10;;
41966;SDS011;27656;53.068;8.818;2024-03-07T13:17:03;24.43;;;13.67;;
41966;SDS011;27656;53.068;8.818;2024-03-07T13:19:30;24.23;;;12.93;;
41966;SDS011;27656;53.068;8.818;2024-03-07T13:21:57;22.87;;;13.50;;
41966;SDS011;27656;53.068;8.818;2024-03-07T13:24:24;25.00;;;13.43;;
41966;SDS011;27656;53.068;8.818;2024-03-07T13:26:52;26.93;;;14.10;;
41966;SDS011;27656;53.068;8.818;2024-03-07T13:29:19;23.23;;;13.33;;
41966;SDS011;27656;53.068;8.818;2024-03-07T13:31:50;24.70;;;13.37;;
41966;SDS011;27656;53.068;8.818;2024-03-07T13:34:18;22.83;;;13.10;;
41966;SDS011;27656;53.068;8.818;2024-03-07T13:36:45;24.03;;;13.07;;
41966;SDS011;27656;53.068;8.818;2024-03-07T13:39:11;24.83;;;13.10;;
41966;SDS011;27656;53.068;8.818;2024-03-07T13:41:43;23.77;;;13.93;;
41966;SDS011;27656;53.068;8.818;2024-03-07T13:44:14;24.27;;;12.83;;
41966;SDS011;27656;53.068;8.818;2024-03-07T13:46:41;23.43;;;13.17;;
41966;SDS011;27656;53.068;8.818;2024-03-07T13:49:07;27.03;;;13.43;;
41966;SDS011;27656;53.068;8.818;2024-03-07T13:51:39;23.07;;;13.87;;
41966;SDS011;27656;53.068;8.818;2024-03-07T13:54:17;27.13;;;14.03;;
41966;SDS011;27656;53.068;8.818;2024-03-07T13:57:01;29.17;;;14.33;;
41966;SDS011;27656;53.068;8.818;2024-03-07T13:59:59;26.90;;;14.50;;
41966;SDS011;27656;53.068;8.818;2024-03-07T14:03:00;28.97;;;14.43;;
41966;SDS011;27656;53.068;8.818;2024-03-07T14:05:56;27.03;;;14.93;;
41966;SDS011;27656;53.068;8.818;2024-03-07T14:08:49;26.83;;;14.23;;
41966;SDS011;27656;53.068;8.818;2024-03-07T14:11:32;28.87;;;14.00;;
41966;SDS011;27656;53.068;8.818;2024-03-07T14:20:06;27.67;;;14.50;;
41966;SDS011;27656;53.068;8.818;2024-03-07T14:25:43;31.77;;;14.80;;
41966;SDS011;27656;53.068;8.818;2024-03-07T14:31:24;28.20;;;14.87;;
41966;SDS011;27656;53.068;8.818;2024-03-07T14:36:44;31.77;;;15.10;;
41966;SDS011;27656;53.068;8.818;2024-03-07T14:39:14;28.60;;;14.40;;
41966;SDS011;27656;53.068;8.818;2024-03-07T14:41:56;28.17;;;14.20;;
41966;SDS011;27656;53.068;8.818;2024-03-07T14:44:26;28.67;;;14.87;;
41966;SDS011;27656;53.068;8.818;2024-03-07T14:46:58;31.60;;;15.67;;
41966;SDS011;27656;53.068;8.818;2024-03-07T14:49:32;24.87;;;12.97;;
41966;SDS011;27656;53.068;8.818;2024-03-07T14:52:00;29.47;;;14.73;;
41966;SDS011;27656;53.068;8.818;2024-03-07T14:54:27;31.27;;;16.47;;
41966;SDS011;27656;53.068;8.818;2024-03-07T14:56:54;30.83;;;15.27;;
41966;SDS011;27656;53.068;8.818;2024-03-07T14:59:21;26.73;;;15.23;;
41966;SDS011;27656;53.068;8.818;2024-03-07T15:01:49;25.47;;;14.50;;
41966;SDS011;27656;53.068;8.818;2024-03-07T15:04:17;25.43;;;14.33;;
41966;SDS011;27656;53.068;8.818;2024-03-07T15:06:44;29.83;;;15.30;;
41966;SDS011;27656;53.068;8.818;2024-03-07T15:09:12;28.93;;;14.73;;
41966;SDS011;27656;53.068;8.818;2024-03-07T15:11:40;27.97;;;14.20;;